LOWI Airport Information

Runway Information
Runway 08 Length 6562 ft width 148 ft
Elevation 1907 ft Threshold 339 ft Heading 81
Runway 26 Length 6562 ft Width 148 ft
Elevation 1894 ft Threshold ft Heading 261
Airport Frequencies
Type APP Name APP Frequency 119.275 MHZ
Type ATIS Name ATIS Frequency 126.025 MHZ
Type GND Crew Name Frequency 121.8 MHZ
Type GND Crew Name Frequency 121.9 MHZ
Type TWR Name TWR Frequency 120.1 MHZ
Airport Navaids
Type NDB Name Innsbruck Frequency 420 KHZ
Type NDB Name Kuhtai Frequency 413 KHZ
Airport Weather Information & NOTAM
ADDS - METARS form results

(0546 UTC 02 July 2022)
Data provider http://aviationweather.gov/metar/data/
 
METAR text: LOWI 020520Z 00000KT 9999 FEW010 BKN018 14/11 Q1026 NOSIG
Conditions at: LOWI (INNSBRUCK AIRPOR, AT) observed 0520 UTC 02 July 2022
Temperature: 14.0°C (57°F)
Dewpoint: 11.0°C (52°F) [RH = 82%]
Pressure (altimeter): 30.30 inches Hg (1026.0 mb)
Winds: calm
Visibility: 6 or more miles (10+ km)
Ceiling: 1800 feet AGL
Clouds: few clouds at 1000 feet AGL
broken clouds at 1800 feet AGL
Weather: no significant weather observed at this time

METAR text: LOWI 020450Z VRB01KT 9999 FEW010 BKN016 14/12 Q1026 NOSIG
Conditions at: LOWI (INNSBRUCK AIRPOR, AT) observed 0450 UTC 02 July 2022
Temperature: 14.0°C (57°F)
Dewpoint: 12.0°C (54°F) [RH = 88%]
Pressure (altimeter): 30.30 inches Hg (1026.0 mb)
Winds: variable direction winds at 1 MPH (1 knots; 0.5 m/s)
Visibility: 6 or more miles (10+ km)
Ceiling: 1600 feet AGL
Clouds: few clouds at 1000 feet AGL
broken clouds at 1600 feet AGL
Weather: no significant weather observed at this time

Forecast for: LOWI (INNSBRUCK AIRPOR, AT)
Text: TAF LOWI 020515Z 0206/0306 VRB03KT 9999 BKN018 TX29/0216Z TN15/0206Z
Forecast period: 0600 to 1000 UTC 02 July 2022
Forecast type: FROM: standard forecast or significant change
Winds: variable direction winds at 3 MPH (3 knots; 1.5 m/s)
Visibility: 6 or more miles (10+ km)
Ceiling: 1800 feet AGL
Clouds: broken clouds at 1800 feet AGL
Weather: no significant weather forecast for this period
Text: BECMG 0210/0212 08010KT
Forecast period: 1000 to 1700 UTC 02 July 2022
Forecast type: BECOMING: Conditions expected to become as follows by 1200 UTC 02 July 2022
Winds: from the E (80 degrees) at 12 MPH (10 knots; 5.1 m/s)
Visibility: 6 or more miles (10+ km)
Ceiling: 1800 feet AGL
Clouds: broken clouds at 1800 feet AGL
Weather: no significant weather forecast for this period
Text: BECMG 0217/0219 VRB02KT
Forecast period: 1700 UTC 02 July 2022 to 0600 UTC 03 July 2022
Forecast type: BECOMING: Conditions expected to become as follows by 1900 UTC 02 July 2022
Winds: variable direction winds at 2 MPH (2 knots; 1.0 m/s)
Visibility: 6 or more miles (10+ km)
Ceiling: 1800 feet AGL
Clouds: broken clouds at 1800 feet AGL
Weather: no significant weather forecast for this period